Time;durP1;ratioP1;P1;durP2;ratioP2;P2;SDS_P1;SDS_P2;PMS_P1;PMS_P2;Temp;Humidity;BMP_temperature;BMP_pressure;BME280_temperature;BME280_humidity;BME280_pressure;Samples;Min_cycle;Max_cycle;Signal;HPM_P1;HPM_P2
2023/01/26 00:01:29;;;;;;;13.77;6.60;;;0.40;99.90;;;;;;5080969;28;20020;-31
2023/01/26 00:03:56;;;;;;;18.00;5.82;;;0.40;99.90;;;;;;5072611;28;20058;-34
2023/01/26 00:06:22;;;;;;;14.48;5.35;;;0.50;99.90;;;;;;5072216;28;20035;-30
2023/01/26 00:08:50;;;;;;;10.88;5.20;;;0.50;99.90;;;;;;5082533;28;20059;-30
2023/01/26 00:11:27;;;;;;;12.10;6.15;;;0.60;99.90;;;;;;5077346;28;20476;-30
2023/01/26 00:13:55;;;;;;;10.95;6.05;;;0.60;99.90;;;;;;5066898;28;20036;-30
2023/01/26 00:16:21;;;;;;;11.20;6.00;;;0.60;99.90;;;;;;5068882;28;20020;-30
2023/01/26 00:18:46;;;;;;;13.38;6.43;;;0.50;99.90;;;;;;5092709;28;20385;-31
2023/01/26 00:21:15;;;;;;;13.63;5.63;;;0.50;99.90;;;;;;5067563;28;20412;-34
2023/01/26 00:23:41;;;;;;;13.75;5.47;;;0.50;99.90;;;;;;5081422;28;20052;-32
2023/01/26 00:26:12;;;;;;;14.98;6.43;;;0.50;99.90;;;;;;5069099;28;20068;-30
2023/01/26 00:28:38;;;;;;;13.93;5.70;;;0.50;99.90;;;;;;5086624;28;20469;-30
2023/01/26 00:31:13;;;;;;;18.55;6.90;;;0.50;99.90;;;;;;5082238;28;20043;-29
2023/01/26 00:33:39;;;;;;;13.65;5.40;;;0.50;99.90;;;;;;5081955;28;20032;-32
2023/01/26 00:36:05;;;;;;;16.80;6.85;;;0.40;99.90;;;;;;5079931;28;20651;-30
2023/01/26 00:38:31;;;;;;;12.43;6.03;;;0.30;99.90;;;;;;5065379;28;20032;-31
2023/01/26 00:40:57;;;;;;;18.60;6.13;;;0.30;99.90;;;;;;5064631;28;20558;-32
2023/01/26 00:43:22;;;;;;;12.45;5.80;;;0.20;99.90;;;;;;5063531;28;20044;-31
2023/01/26 00:45:48;;;;;;;12.77;6.28;;;0.20;99.90;;;;;;5069683;28;20373;-30
2023/01/26 00:48:14;;;;;;;15.40;6.93;;;0.20;99.90;;;;;;5066074;28;21036;-33
2023/01/26 00:50:40;;;;;;;17.58;7.93;;;0.10;99.90;;;;;;5061597;28;20035;-33
2023/01/26 00:53:05;;;;;;;17.95;7.75;;;0.10;99.90;;;;;;5062352;28;20051;-36
2023/01/26 00:55:31;;;;;;;15.40;6.38;;;0.10;99.90;;;;;;5068747;28;20808;-31
2023/01/26 00:58:01;;;;;;;17.08;7.00;;;0.10;99.90;;;;;;5061669;28;20085;-31
2023/01/26 01:00:27;;;;;;;17.02;6.63;;;0.10;99.90;;;;;;5063315;28;20493;-32
2023/01/26 01:02:55;;;;;;;14.48;6.85;;;0.20;99.90;;;;;;5067109;28;20042;-31
2023/01/26 01:05:24;;;;;;;18.77;7.70;;;0.20;99.90;;;;;;5067188;28;20427;-36
2023/01/26 01:07:50;;;;;;;13.45;6.63;;;0.20;99.90;;;;;;5049949;28;20044;-30
2023/01/26 01:10:16;;;;;;;22.42;7.78;;;0.20;99.90;;;;;;5066664;28;20065;-33
2023/01/26 01:12:41;;;;;;;17.00;7.22;;;0.20;99.90;;;;;;5067031;28;20462;-33
2023/01/26 01:15:07;;;;;;;14.45;5.70;;;0.10;99.90;;;;;;5063112;28;20134;-33
2023/01/26 01:17:35;;;;;;;12.23;5.85;;;0.10;99.90;;;;;;5064373;28;20705;-30
2023/01/26 01:20:01;;;;;;;11.70;5.43;;;0.10;99.90;;;;;;5065454;28;21866;-32
2023/01/26 01:22:27;;;;;;;11.63;5.90;;;0.20;99.90;;;;;;5063269;28;20016;-33
2023/01/26 01:24:52;;;;;;;14.80;6.68;;;0.20;99.90;;;;;;5065002;28;20104;-35
2023/01/26 01:27:18;;;;;;;10.73;5.55;;;0.30;99.90;;;;;;5061516;28;20051;-32
2023/01/26 01:29:44;;;;;;;8.88;5.03;;;0.20;99.90;;;;;;5066999;28;20035;-31
2023/01/26 01:32:09;;;;;;;12.98;5.65;;;0.10;99.90;;;;;;5061594;28;20036;-30
2023/01/26 01:34:35;;;;;;;14.13;6.45;;;0.10;99.90;;;;;;5066631;28;20499;-36
2023/01/26 01:37:00;;;;;;;8.75;5.50;;;0.20;99.90;;;;;;5064649;28;20044;-33
2023/01/26 01:39:26;;;;;;;10.93;5.75;;;0.20;99.90;;;;;;5067349;28;20030;-34
2023/01/26 01:41:51;;;;;;;12.57;7.03;;;0.30;99.90;;;;;;5065744;28;21534;-33
2023/01/26 01:44:23;;;;;;;18.33;8.82;;;0.40;99.90;;;;;;5063683;28;20477;-34
2023/01/26 01:47:04;;;;;;;15.95;8.90;;;0.40;99.90;;;;;;5042617;28;20032;-30
2023/01/26 01:49:37;;;;;;;15.60;7.35;;;0.40;99.90;;;;;;5065400;28;21852;-32
2023/01/26 01:52:16;;;;;;;19.83;8.23;;;0.40;99.90;;;;;;5062772;28;20043;-30
2023/01/26 01:54:56;;;;;;;13.85;6.25;;;0.40;99.90;;;;;;5066685;28;20163;-34
2023/01/26 01:57:28;;;;;;;14.30;7.38;;;0.40;99.90;;;;;;5062128;28;21833;-31
2023/01/26 02:00:05;;;;;;;18.13;7.60;;;0.40;99.90;;;;;;5063515;28;20504;-32
2023/01/26 02:02:31;;;;;;;22.75;8.95;;;0.30;99.90;;;;;;5052395;28;20043;-31
2023/01/26 02:05:02;;;;;;;35.08;14.90;;;0.20;99.90;;;;;;5063099;28;20032;-35
2023/01/26 02:07:31;;;;;;;19.90;8.07;;;0.30;99.90;;;;;;5065439;28;20452;-32
2023/01/26 02:12:42;;;;;;;18.70;7.30;;;0.20;99.90;;;;;;5062343;28;20039;-35
2023/01/26 02:15:09;;;;;;;15.00;6.43;;;0.20;99.90;;;;;;5063462;28;20043;-32
2023/01/26 02:17:35;;;;;;;14.10;6.85;;;0.20;99.90;;;;;;5065549;28;20028;-32
2023/01/26 02:20:25;;;;;;;13.70;6.85;;;0.20;99.90;;;;;;5064519;28;21294;-37
2023/01/26 02:22:51;;;;;;;14.80;6.70;;;0.20;99.90;;;;;;5062366;28;20396;-34
2023/01/26 02:25:48;;;;;;;11.98;5.40;;;0.20;99.90;;;;;;5064712;28;20034;-33
2023/01/26 02:28:14;;;;;;;19.13;6.53;;;0.20;99.90;;;;;;5044936;28;20070;-31
2023/01/26 02:30:40;;;;;;;13.77;6.38;;;0.10;99.90;;;;;;5062162;28;20769;-34
2023/01/26 02:33:07;;;;;;;15.95;6.45;;;0.10;99.90;;;;;;5046812;28;20020;-34
2023/01/26 02:35:32;;;;;;;17.33;6.97;;;0.10;99.90;;;;;;5060563;28;20043;-37
2023/01/26 02:37:58;;;;;;;17.60;7.20;;;0.10;99.90;;;;;;5062902;28;20028;-33
2023/01/26 02:40:39;;;;;;;12.02;6.25;;;0.10;99.90;;;;;;5064549;28;20036;-34
2023/01/26 02:43:08;;;;;;;18.25;6.40;;;0.20;99.90;;;;;;5085533;28;20213;-33
2023/01/26 02:45:35;;;;;;;10.40;5.60;;;0.30;99.90;;;;;;5092434;28;20028;-31
2023/01/26 02:48:03;;;;;;;11.63;5.68;;;0.30;99.90;;;;;;5080990;28;20024;-32
2023/01/26 02:50:30;;;;;;;17.35;7.43;;;0.30;99.90;;;;;;5078190;28;20039;-39
2023/01/26 02:52:57;;;;;;;13.40;6.25;;;0.30;99.90;;;;;;5076735;28;20425;-33
2023/01/26 02:55:26;;;;;;;8.75;5.70;;;0.30;99.90;;;;;;5069788;28;20032;-31
2023/01/26 02:57:57;;;;;;;9.05;5.30;;;0.30;99.90;;;;;;5080374;28;20028;-30
2023/01/26 03:00:25;;;;;;;17.92;6.38;;;0.40;99.90;;;;;;5086562;28;20500;-33
2023/01/26 03:02:54;;;;;;;12.55;6.47;;;0.40;99.90;;;;;;5081254;28;20409;-34
2023/01/26 03:05:19;;;;;;;14.98;6.53;;;0.40;99.90;;;;;;5080320;28;20481;-31
2023/01/26 03:07:45;;;;;;;18.40;6.85;;;0.50;99.90;;;;;;5061581;28;20127;-31
2023/01/26 03:10:12;;;;;;;15.30;6.93;;;0.50;99.90;;;;;;5065438;28;20073;-30
2023/01/26 03:12:38;;;;;;;12.05;5.72;;;0.50;99.90;;;;;;5042110;28;20036;-33
2023/01/26 03:17:50;;;;;;;14.07;7.00;;;0.40;99.90;;;;;;5063685;28;20124;-35
2023/01/26 03:28:28;;;;;;;15.07;7.47;;;0.50;99.90;;;;;;5070605;28;20110;-32
2023/01/26 03:30:56;;;;;;;14.52;6.68;;;0.50;99.90;;;;;;5035025;28;20114;-39
2023/01/26 03:33:22;;;;;;;17.20;8.65;;;0.50;99.90;;;;;;5065966;28;20397;-32
2023/01/26 03:35:47;;;;;;;17.63;8.07;;;0.40;99.90;;;;;;5063432;28;20040;-31
2023/01/26 03:38:13;;;;;;;15.80;8.07;;;0.40;99.90;;;;;;5060940;28;20032;-33
2023/01/26 03:57:05;;;;;;;17.23;7.22;;;0.50;99.90;;;;;;5067979;28;20457;-30
2023/01/26 03:59:37;;;;;;;18.02;7.03;;;0.50;99.90;;;;;;5062358;28;20029;-30
2023/01/26 04:10:17;;;;;;;10.10;5.50;;;0.30;99.90;;;;;;5082692;28;20633;-30
2023/01/26 04:12:43;;;;;;;14.68;7.80;;;0.40;99.90;;;;;;5080784;28;20475;-32
2023/01/26 04:23:21;;;;;;;11.75;6.82;;;0.40;99.90;;;;;;5082999;28;20081;-31
2023/01/26 04:25:47;;;;;;;16.45;6.65;;;0.40;99.90;;;;;;5082439;28;20397;-30
2023/01/26 04:28:12;;;;;;;18.02;8.05;;;0.30;99.90;;;;;;5083651;28;20891;-31
2023/01/26 04:30:38;;;;;;;20.52;7.15;;;0.30;99.90;;;;;;5087891;28;20073;-32
2023/01/26 04:33:04;;;;;;;13.65;7.78;;;0.30;99.90;;;;;;5079593;28;20469;-30
2023/01/26 04:35:30;;;;;;;16.05;8.40;;;0.30;99.90;;;;;;5079231;28;20074;-32
2023/01/26 04:37:55;;;;;;;21.25;8.70;;;0.30;99.90;;;;;;5089735;28;20030;-31
2023/01/26 04:40:21;;;;;;;16.35;8.10;;;0.30;99.90;;;;;;5085346;28;20387;-30
2023/01/26 04:42:47;;;;;;;21.98;8.80;;;0.30;99.90;;;;;;5063354;28;20036;-30
2023/01/26 04:45:12;;;;;;;13.05;6.35;;;0.30;99.90;;;;;;5063352;28;20028;-33
2023/01/26 04:47:38;;;;;;;14.68;6.72;;;0.30;99.90;;;;;;5086450;28;20097;-32
2023/01/26 04:50:04;;;;;;;10.13;5.45;;;0.30;99.90;;;;;;5087802;28;20119;-30
2023/01/26 04:52:29;;;;;;;16.48;7.97;;;0.30;99.90;;;;;;5079781;28;20110;-30
2023/01/26 04:54:55;;;;;;;13.68;6.30;;;0.30;99.90;;;;;;5068218;28;20046;-30
2023/01/26 04:57:22;;;;;;;20.13;7.40;;;0.30;99.90;;;;;;5083488;28;20032;-30
2023/01/26 04:59:48;;;;;;;13.85;7.00;;;0.30;99.90;;;;;;5087462;28;20032;-33
2023/01/26 05:02:13;;;;;;;14.32;6.75;;;0.40;99.90;;;;;;5076854;28;20539;-32
2023/01/26 05:04:39;;;;;;;21.30;6.32;;;0.30;99.90;;;;;;5062150;28;20071;-30
2023/01/26 05:07:05;;;;;;;18.10;7.63;;;0.20;99.90;;;;;;5083910;28;20099;-30
2023/01/26 05:09:30;;;;;;;13.57;6.78;;;0.20;99.90;;;;;;5047377;28;1166103;-31
2023/01/26 05:12:32;;;;;;;11.65;5.57;;;0.20;99.90;;;;;;5082347;28;20104;-34
2023/01/26 05:14:44;;;;;;;10.90;6.05;;;0.30;99.90;;;;;;5079139;28;20050;-30
2023/01/26 05:17:10;;;;;;;15.93;6.70;;;0.40;99.90;;;;;;5085761;28;20033;-32
2023/01/26 05:19:39;;;;;;;13.15;6.60;;;0.40;99.90;;;;;;5083865;28;20024;-32
2023/01/26 05:22:04;;;;;;;;;;;0.50;99.90;;;;;;5080630;28;20020;-32
2023/01/26 05:24:30;;;;;;;11.95;5.47;;;0.50;99.90;;;;;;5079660;28;19916;-33
2023/01/26 05:27:19;;;;;;;14.82;7.45;;;0.50;99.90;;;;;;5082920;28;20367;-30
2023/01/26 05:29:41;;;;;;;15.35;7.47;;;0.50;99.90;;;;;;5085908;28;20027;-31
2023/01/26 05:32:06;;;;;;;14.93;5.22;;;0.50;99.90;;;;;;5085842;28;20128;-32
2023/01/26 05:34:32;;;;;;;16.40;6.55;;;0.60;99.90;;;;;;5076511;28;20027;-31
2023/01/26 05:36:58;;;;;;;12.40;5.80;;;0.50;99.90;;;;;;5059610;28;20171;-31
2023/01/26 05:39:23;;;;;;;14.13;5.68;;;0.50;99.90;;;;;;5083529;28;20036;-32
2023/01/26 05:41:49;;;;;;;16.83;7.10;;;0.50;99.90;;;;;;5083503;28;20511;-32
2023/01/26 05:44:15;;;;;;;15.13;7.00;;;0.50;99.90;;;;;;5060426;28;20056;-42
2023/01/26 05:46:40;;;;;;;16.50;8.27;;;0.50;99.90;;;;;;5084179;28;20104;-31
2023/01/26 05:49:06;;;;;;;14.27;6.55;;;0.50;99.90;;;;;;5060304;28;20025;-38
2023/01/26 05:51:32;;;;;;;14.77;6.50;;;0.50;99.90;;;;;;5084145;28;20480;-32
2023/01/26 05:53:57;;;;;;;9.35;4.57;;;0.50;99.90;;;;;;5082627;28;20039;-32
2023/01/26 05:56:23;;;;;;;10.05;5.68;;;0.30;99.90;;;;;;5084352;28;20397;-31
2023/01/26 05:58:48;;;;;;;11.82;6.25;;;0.30;99.90;;;;;;5078652;28;20036;-31
2023/01/26 06:01:14;;;;;;;14.15;7.32;;;0.30;99.90;;;;;;5080311;28;20032;-33
2023/01/26 06:03:39;;;;;;;19.80;6.80;;;0.30;99.90;;;;;;5077282;28;20114;-34
2023/01/26 06:06:05;;;;;;;15.32;5.85;;;0.30;99.90;;;;;;5078004;28;20016;-30
2023/01/26 06:08:31;;;;;;;10.75;4.85;;;0.20;99.90;;;;;;5079806;28;20048;-31
2023/01/26 06:11:00;;;;;;;15.13;5.53;;;0.20;99.90;;;;;;5082374;28;20040;-29
2023/01/26 06:13:26;;;;;;;11.10;5.30;;;0.30;99.90;;;;;;5066265;28;20088;-32
2023/01/26 06:15:51;;;;;;;11.02;6.78;;;0.30;99.90;;;;;;5075068;28;20028;-34
2023/01/26 06:18:17;;;;;;;4.75;3.33;;;0.10;99.90;;;;;;5064634;28;20028;-33
2023/01/26 06:20:42;;;;;;;12.30;5.25;;;0.10;99.90;;;;;;5067115;28;20039;-33
2023/01/26 06:23:10;;;;;;;17.20;6.68;;;0.00;99.90;;;;;;5067967;28;20406;-29
2023/01/26 06:25:38;;;;;;;9.18;5.32;;;0.00;99.90;;;;;;5065819;28;20063;-35
2023/01/26 06:28:04;;;;;;;10.18;4.93;;;0.10;99.90;;;;;;5061002;28;20038;-33
2023/01/26 06:30:30;;;;;;;16.60;6.28;;;0.10;99.90;;;;;;5062509;28;20059;-34
2023/01/26 06:32:56;;;;;;;17.27;7.35;;;0.00;99.90;;;;;;5064638;28;20111;-30
2023/01/26 06:35:21;;;;;;;11.38;6.10;;;0.10;99.90;;;;;;5064715;28;20042;-32
2023/01/26 06:37:49;;;;;;;11.40;5.85;;;0.10;99.90;;;;;;5064227;28;20531;-32
2023/01/26 06:40:15;;;;;;;14.02;6.43;;;0.10;99.90;;;;;;5061333;28;20028;-34
2023/01/26 06:42:47;;;;;;;14.35;6.15;;;0.10;99.90;;;;;;5077895;28;20028;-35
2023/01/26 06:45:13;;;;;;;7.72;4.97;;;0.00;99.90;;;;;;5077645;28;20028;-32
2023/01/26 06:47:46;;;;;;;9.13;4.68;;;0.00;99.90;;;;;;5088280;28;20931;-31
2023/01/26 06:50:24;;;;;;;14.05;5.53;;;0.00;99.90;;;;;;5083784;28;20024;-33
2023/01/26 06:52:54;;;;;;;24.13;6.90;;;0.00;99.90;;;;;;5080633;28;20389;-30
2023/01/26 06:55:31;;;;;;;12.23;5.28;;;0.10;99.90;;;;;;5078056;28;20059;-32
2023/01/26 06:57:56;;;;;;;15.43;6.97;;;0.20;99.90;;;;;;5079025;28;20081;-30
2023/01/26 07:00:22;;;;;;;11.57;5.90;;;0.20;99.90;;;;;;5081785;28;20036;-30
2023/01/26 07:02:47;;;;;;;15.80;7.03;;;0.20;99.90;;;;;;5078902;28;20042;-29
2023/01/26 07:05:13;;;;;;;8.38;4.60;;;0.20;99.90;;;;;;5079466;28;20109;-33
2023/01/26 07:07:38;;;;;;;11.65;5.43;;;0.20;99.90;;;;;;5075758;28;20051;-30
2023/01/26 07:10:07;;;;;;;15.40;6.10;;;0.20;99.90;;;;;;5086571;28;20036;-30
2023/01/26 07:12:41;;;;;;;12.23;5.32;;;0.30;99.90;;;;;;5082684;28;20481;-29
2023/01/26 07:15:08;;;;;;;11.02;5.15;;;0.30;99.90;;;;;;5078179;28;20393;-34
2023/01/26 07:17:33;;;;;;;10.32;6.25;;;0.30;99.90;;;;;;5071854;28;20312;-34
2023/01/26 07:19:59;;;;;;;14.60;8.15;;;0.30;99.90;;;;;;5076860;28;20027;-30
2023/01/26 07:22:24;;;;;;;11.05;5.85;;;0.30;99.90;;;;;;5078788;28;20103;-30
2023/01/26 07:24:50;;;;;;;17.40;6.10;;;0.20;99.90;;;;;;5078983;28;20029;-39
2023/01/26 07:27:15;;;;;;;10.43;6.68;;;0.30;99.90;;;;;;5086214;28;20454;-33
2023/01/26 07:29:41;;;;;;;9.27;4.82;;;0.30;99.90;;;;;;5078994;28;20020;-30
2023/01/26 07:32:07;;;;;;;13.18;5.78;;;0.30;99.90;;;;;;5088765;28;20048;-33
2023/01/26 07:34:32;;;;;;;18.48;8.43;;;0.30;99.90;;;;;;5078173;28;20481;-31
2023/01/26 07:36:58;;;;;;;14.90;4.90;;;0.40;99.90;;;;;;5067563;28;20156;-32
2023/01/26 07:39:23;;;;;;;15.57;6.13;;;0.40;99.90;;;;;;5075045;28;20363;-30
2023/01/26 07:41:49;;;;;;;9.90;4.75;;;0.30;99.90;;;;;;5083409;28;20354;-30
2023/01/26 07:44:15;;;;;;;14.40;5.97;;;0.20;99.90;;;;;;5083381;28;20393;-30
2023/01/26 07:46:41;;;;;;;11.93;6.47;;;0.30;99.90;;;;;;5091975;28;20384;-30
2023/01/26 07:49:06;;;;;;;15.75;7.38;;;0.30;99.90;;;;;;5058666;28;21353;-30
2023/01/26 07:51:32;;;;;;;31.42;24.55;;;0.30;99.90;;;;;;5079413;28;20028;-33
2023/01/26 07:53:58;;;;;;;21.58;9.45;;;0.30;99.90;;;;;;5088291;28;20027;-30
2023/01/26 07:56:24;;;;;;;13.27;6.30;;;0.30;99.90;;;;;;5086312;28;20106;-37
2023/01/26 07:58:51;;;;;;;15.38;5.65;;;0.40;99.90;;;;;;5065618;28;20089;-31
2023/01/26 08:01:16;;;;;;;11.45;6.90;;;0.40;99.90;;;;;;5090467;28;20702;-31
2023/01/26 08:03:44;;;;;;;16.20;6.65;;;0.40;99.90;;;;;;5093427;28;20106;-31
2023/01/26 08:06:11;;;;;;;11.57;5.43;;;0.40;99.90;;;;;;5087652;28;20103;-30
2023/01/26 08:08:40;;;;;;;13.15;5.22;;;0.40;99.90;;;;;;5084849;28;20141;-32
2023/01/26 08:11:06;;;;;;;;;;;0.30;99.90;;;;;;5080108;28;20480;-33
2023/01/26 08:13:31;;;;;;;9.15;4.45;;;0.30;99.90;;;;;;5087358;28;19912;-30
2023/01/26 08:16:08;;;;;;;14.85;6.15;;;0.30;99.90;;;;;;5090803;28;20032;-29
2023/01/26 08:18:34;;;;;;;12.57;5.32;;;0.30;99.90;;;;;;5092225;28;20118;-30
2023/01/26 08:21:03;;;;;;;15.70;5.25;;;0.30;99.90;;;;;;5093020;28;20444;-30
2023/01/26 08:23:29;;;;;;;9.45;5.22;;;0.30;99.90;;;;;;5079395;28;20121;-29
2023/01/26 08:25:59;;;;;;;14.18;5.00;;;0.20;99.90;;;;;;5085421;28;20558;-29
2023/01/26 08:28:24;;;;;;;13.38;5.38;;;0.30;99.90;;;;;;5085059;28;20028;-29
2023/01/26 08:30:50;;;;;;;9.32;5.13;;;0.20;99.90;;;;;;5069281;28;20059;-30
2023/01/26 08:33:16;;;;;;;8.23;4.68;;;0.20;99.90;;;;;;5089618;28;20103;-29
2023/01/26 08:35:41;;;;;;;7.28;4.15;;;0.10;99.90;;;;;;5087047;28;20024;-29
2023/01/26 08:38:07;;;;;;;14.98;5.13;;;0.10;99.90;;;;;;5088315;28;20142;-29
2023/01/26 08:40:33;;;;;;;15.88;5.95;;;0.10;99.90;;;;;;5091566;28;20036;-31
2023/01/26 08:43:00;;;;;;;9.55;5.85;;;0.10;99.90;;;;;;5082529;28;20028;-31
2023/01/26 08:45:25;;;;;;;11.02;6.05;;;0.10;99.90;;;;;;5092446;28;20097;-30
2023/01/26 08:47:51;;;;;;;12.02;6.10;;;0.20;99.90;;;;;;5096254;28;20499;-29
2023/01/26 08:50:17;;;;;;;16.52;7.47;;;0.30;99.90;;;;;;5087522;28;20099;-33
2023/01/26 08:52:43;;;;;;;11.30;6.75;;;0.30;99.90;;;;;;5083497;28;21779;-29
2023/01/26 08:55:09;;;;;;;11.20;5.72;;;0.30;99.90;;;;;;5085655;28;20745;-30
2023/01/26 08:57:34;;;;;;;11.02;5.88;;;0.20;99.90;;;;;;5071698;28;20411;-29
2023/01/26 09:00:00;;;;;;;12.27;7.00;;;0.20;99.90;;;;;;5088673;28;20039;-30
2023/01/26 09:02:26;;;;;;;16.90;6.22;;;0.20;99.90;;;;;;5089698;28;20537;-31
2023/01/26 09:04:51;;;;;;;13.48;6.00;;;0.10;99.90;;;;;;5091464;28;20095;-29
2023/01/26 09:07:17;;;;;;;11.45;5.88;;;0.00;99.90;;;;;;5085611;28;20067;-30
2023/01/26 09:09:43;;;;;;;9.63;5.40;;;0.00;99.90;;;;;;5090811;28;20056;-30
2023/01/26 09:12:09;;;;;;;13.05;5.97;;;0.20;99.90;;;;;;5078528;28;20036;-29
2023/01/26 09:14:34;;;;;;;11.68;5.68;;;0.20;99.90;;;;;;5088802;28;20039;-30
2023/01/26 09:17:00;;;;;;;10.70;5.55;;;0.20;99.90;;;;;;5083438;28;20039;-30
2023/01/26 09:19:25;;;;;;;12.93;6.35;;;0.10;99.90;;;;;;5089132;28;20508;-32
2023/01/26 09:21:52;;;;;;;11.10;5.28;;;0.10;99.90;;;;;;5066851;28;20572;-30
2023/01/26 09:24:19;;;;;;;18.30;8.18;;;0.10;99.90;;;;;;5089280;28;20492;-29
2023/01/26 09:26:44;;;;;;;14.52;6.25;;;0.10;99.90;;;;;;5086001;28;20036;-29
2023/01/26 09:29:10;;;;;;;14.85;6.50;;;0.10;99.90;;;;;;5082576;28;20020;-30
2023/01/26 09:31:35;;;;;;;18.45;6.72;;;0.10;99.90;;;;;;5085744;28;20032;-31
2023/01/26 09:34:01;;;;;;;16.27;7.20;;;0.10;99.90;;;;;;5089039;28;20048;-30
2023/01/26 09:36:26;;;;;;;15.43;6.07;;;0.10;99.90;;;;;;5084250;28;20036;-34
2023/01/26 09:38:52;;;;;;;14.18;6.72;;;0.10;99.90;;;;;;5070888;28;20033;-31
2023/01/26 09:41:49;;;;;;;14.52;6.45;;;0.00;99.90;;;;;;5067271;28;20328;-30
2023/01/26 09:44:19;;;;;;;12.82;6.30;;;0.00;99.90;;;;;;5082874;28;20020;-31
2023/01/26 09:46:57;;;;;;;15.43;6.28;;;0.00;99.90;;;;;;5086279;28;20031;-31
2023/01/26 09:49:41;;;;;;;14.63;7.60;;;-0.10;99.90;;;;;;5084378;28;20028;-31
2023/01/26 09:52:19;;;;;;;13.52;7.65;;;-0.10;99.90;;;;;;5084450;28;20109;-30
2023/01/26 09:54:51;;;;;;;16.73;8.73;;;0.00;99.90;;;;;;5084596;28;20085;-33
2023/01/26 09:57:23;;;;;;;17.63;7.68;;;0.00;99.90;;;;;;5085876;28;20136;-30
2023/01/26 10:00:26;;;;;;;13.60;6.40;;;-0.10;99.90;;;;;;5084172;28;20024;-31
2023/01/26 10:03:16;;;;;;;17.73;8.48;;;-0.10;99.90;;;;;;5079587;28;20086;-30
2023/01/26 10:05:47;;;;;;;14.18;7.20;;;-0.10;99.90;;;;;;5083975;28;20020;-36
2023/01/26 10:08:16;;;;;;;14.52;6.93;;;-0.10;99.90;;;;;;5085108;28;20609;-30
2023/01/26 10:11:05;;;;;;;;;;;0.00;99.90;;;;;;5084213;28;20047;-33
2023/01/26 10:13:31;;;;;;;18.73;8.95;;;0.00;99.90;;;;;;5067057;28;20011;-30
2023/01/26 10:16:02;;;;;;;16.88;8.20;;;0.00;99.90;;;;;;5069688;28;20115;-33
2023/01/26 10:18:51;;;;;;;16.45;7.47;;;0.00;99.90;;;;;;5087863;28;20028;-30
2023/01/26 10:21:20;;;;;;;19.40;7.70;;;0.00;99.90;;;;;;5080834;28;20024;-29
2023/01/26 10:23:48;;;;;;;15.68;6.90;;;-0.10;99.90;;;;;;5085217;28;20023;-29
2023/01/26 10:26:21;;;;;;;15.15;7.90;;;-0.10;99.90;;;;;;5085620;28;20020;-30
2023/01/26 10:28:49;;;;;;;13.80;7.15;;;0.00;99.90;;;;;;5088024;28;20028;-30
2023/01/26 10:31:19;;;;;;;18.55;7.25;;;0.00;99.90;;;;;;5080622;28;20057;-29
2023/01/26 10:33:55;;;;;;;11.73;6.90;;;0.00;99.90;;;;;;5071086;28;20035;-30
2023/01/26 10:36:21;;;;;;;20.23;8.32;;;0.00;99.90;;;;;;5084150;28;20078;-29
2023/01/26 10:38:48;;;;;;;14.32;7.45;;;-0.10;99.90;;;;;;5083977;28;20028;-30
2023/01/26 10:41:15;;;;;;;15.60;7.85;;;-0.10;99.90;;;;;;5088464;28;20138;-32
2023/01/26 10:43:48;;;;;;;12.07;6.63;;;-0.10;99.90;;;;;;5063212;28;20048;-29
2023/01/26 10:46:29;;;;;;;11.70;6.45;;;-0.10;99.90;;;;;;5088441;28;20469;-31
2023/01/26 10:49:00;;;;;;;12.65;6.05;;;0.00;99.90;;;;;;5080908;28;20089;-34
2023/01/26 10:51:32;;;;;;;14.10;6.18;;;0.00;99.90;;;;;;5083949;28;20031;-29
2023/01/26 10:54:20;;;;;;;13.50;6.03;;;0.00;99.90;;;;;;5086264;28;20089;-30
2023/01/26 10:57:01;;;;;;;11.48;5.65;;;0.10;99.90;;;;;;5082985;28;20029;-29
2023/01/26 10:59:32;;;;;;;10.80;4.90;;;0.10;99.90;;;;;;5081024;28;20103;-29
2023/01/26 11:02:19;;;;;;;8.95;4.88;;;0.10;99.90;;;;;;5081331;28;20066;-29
2023/01/26 11:05:07;;;;;;;11.38;5.93;;;0.20;99.90;;;;;;5079996;28;20115;-30
2023/01/26 11:07:33;;;;;;;;;;;0.20;99.90;;;;;;5077272;28;20081;-32
2023/01/26 11:10:21;;;;;;;10.98;3.67;;;0.20;99.90;;;;;;5080996;28;20035;-30
2023/01/26 11:12:47;;;;;;;9.70;4.68;;;0.30;99.90;;;;;;5073146;28;20044;-30
2023/01/26 11:15:22;;;;;;;14.15;6.63;;;0.30;99.90;;;;;;5085279;28;20020;-29
2023/01/26 11:17:50;;;;;;;11.82;5.65;;;0.30;99.90;;;;;;5084591;28;20067;-30
2023/01/26 11:20:33;;;;;;;13.23;6.00;;;0.20;99.90;;;;;;5085495;28;20603;-30
2023/01/26 11:23:03;;;;;;;9.70;6.00;;;0.10;99.90;;;;;;5083493;28;20028;-30
2023/01/26 11:25:38;;;;;;;8.70;4.85;;;0.00;99.90;;;;;;5091424;28;20027;-30
2023/01/26 11:28:21;;;;;;;9.05;4.85;;;0.10;99.90;;;;;;5081919;28;20548;-31
2023/01/26 11:31:08;;;;;;;13.65;5.60;;;0.20;99.90;;;;;;5084762;28;20536;-30
2023/01/26 11:34:03;;;;;;;11.52;4.78;;;0.20;99.90;;;;;;5087829;28;20032;-30
2023/01/26 11:36:39;;;;;;;8.55;4.90;;;0.20;99.90;;;;;;5092435;28;20028;-32
2023/01/26 11:39:16;;;;;;;13.07;5.35;;;0.30;99.90;;;;;;5081544;28;20051;-31
2023/01/26 11:41:54;;;;;;;9.75;4.38;;;0.40;99.90;;;;;;5094026;28;20530;-29
2023/01/26 11:44:47;;;;;;;7.47;4.53;;;0.40;99.90;;;;;;5086876;28;20021;-34
2023/01/26 11:47:28;;;;;;;10.15;5.10;;;0.40;99.90;;;;;;5073694;28;20028;-29
2023/01/26 11:50:18;;;;;;;7.90;4.28;;;0.50;99.90;;;;;;5089422;28;20393;-31
2023/01/26 11:52:57;;;;;;;13.25;5.85;;;0.30;99.90;;;;;;5084421;28;20366;-29
2023/01/26 11:55:22;;;;;;;;;;;0.20;99.90;;;;;;5085196;28;20024;-30
2023/01/26 11:58:15;;;;;;;6.72;4.32;;;0.10;99.90;;;;;;5086462;28;20343;-30
2023/01/26 12:00:48;;;;;;;13.98;5.13;;;0.20;99.90;;;;;;5086419;28;20066;-30
2023/01/26 12:03:40;;;;;;;11.55;5.05;;;0.20;99.90;;;;;;5091539;28;20488;-29
2023/01/26 12:06:13;;;;;;;11.13;5.20;;;0.10;99.90;;;;;;5086615;28;20396;-29
2023/01/26 12:08:43;;;;;;;10.98;4.25;;;0.20;99.90;;;;;;5065724;28;20442;-32
2023/01/26 12:11:24;;;;;;;8.18;4.40;;;0.20;99.90;;;;;;5090907;28;20028;-30
2023/01/26 12:14:11;;;;;;;6.32;4.07;;;0.20;99.90;;;;;;5089824;28;20695;-29
2023/01/26 12:16:41;;;;;;;9.13;4.57;;;0.20;99.90;;;;;;5067435;28;20377;-30
2023/01/26 12:19:34;;;;;;;9.18;3.83;;;0.20;99.90;;;;;;5085039;28;20129;-31
2023/01/26 12:22:10;;;;;;;8.60;4.30;;;0.10;99.90;;;;;;5093352;28;20020;-29
2023/01/26 12:24:44;;;;;;;6.82;4.30;;;0.20;99.90;;;;;;5086621;28;20029;-31
2023/01/26 12:27:20;;;;;;;8.55;4.05;;;0.30;99.90;;;;;;5075317;28;20067;-34
2023/01/26 12:29:55;;;;;;;16.00;4.65;;;0.30;99.90;;;;;;5079482;28;20042;-30
2023/01/26 12:32:21;;;;;;;10.85;3.92;;;0.30;99.90;;;;;;5087829;28;20081;-32
2023/01/26 12:34:47;;;;;;;5.05;3.03;;;0.40;99.90;;;;;;5077391;28;20303;-29
2023/01/26 12:37:48;;;;;;;7.65;3.10;;;0.40;99.90;;;;;;5080945;28;20111;-33
2023/01/26 12:40:28;;;;;;;6.22;3.05;;;0.40;99.90;;;;;;5093157;28;20027;-33
2023/01/26 12:42:59;;;;;;;3.95;2.70;;;0.40;99.90;;;;;;5094485;28;20059;-30
2023/01/26 12:45:30;;;;;;;7.75;3.08;;;0.40;99.90;;;;;;5073486;28;20429;-29
2023/01/26 12:48:15;;;;;;;7.00;4.65;;;0.50;99.90;;;;;;5085003;28;20054;-30
2023/01/26 12:50:55;;;;;;;5.63;3.22;;;0.40;99.90;;;;;;5086881;28;20567;-32
2023/01/26 12:54:08;;;;;;;6.03;3.63;;;0.40;99.90;;;;;;5079406;28;20052;-35
2023/01/26 12:56:41;;;;;;;4.32;2.78;;;0.40;99.90;;;;;;5027837;28;20085;-30
2023/01/26 12:59:26;;;;;;;8.60;3.75;;;0.40;99.90;;;;;;5074724;28;20040;-31
2023/01/26 13:01:52;;;;;;;6.43;3.20;;;0.50;99.90;;;;;;5086313;28;20485;-30
2023/01/26 13:04:18;;;;;;;8.95;4.22;;;0.40;99.90;;;;;;5087859;28;20036;-30
2023/01/26 13:06:43;;;;;;;6.95;3.42;;;0.30;99.90;;;;;;5086118;28;20028;-30
2023/01/26 13:09:22;;;;;;;6.68;3.65;;;0.30;99.90;;;;;;5094285;28;20130;-31
2023/01/26 13:11:49;;;;;;;6.45;3.42;;;0.20;99.90;;;;;;5085788;28;20032;-30
2023/01/26 13:14:36;;;;;;;8.30;3.95;;;0.40;99.90;;;;;;5084891;28;20032;-29
2023/01/26 13:17:14;;;;;;;11.57;3.33;;;0.40;99.90;;;;;;5084331;28;20081;-30
2023/01/26 13:19:43;;;;;;;5.57;3.67;;;0.50;99.90;;;;;;5075810;28;20023;-30
2023/01/26 13:22:17;;;;;;;;;;;0.60;99.90;;;;;;5081668;28;20084;-30
2023/01/26 13:24:46;;;;;;;6.53;3.10;;;0.60;99.90;;;;;;5083693;28;19999;-31
2023/01/26 13:27:43;;;;;;;5.97;3.70;;;0.60;99.90;;;;;;5084116;28;20035;-30
2023/01/26 13:30:20;;;;;;;5.33;3.20;;;0.60;99.90;;;;;;5090655;28;20454;-30
2023/01/26 13:32:46;;;;;;;4.28;2.88;;;0.60;99.90;;;;;;5082802;28;20511;-30
2023/01/26 13:35:13;;;;;;;7.38;4.00;;;0.50;99.90;;;;;;5086076;28;20087;-30
2023/01/26 13:38:09;;;;;;;7.03;3.42;;;0.50;99.90;;;;;;5083232;28;20020;-32
2023/01/26 13:40:36;;;;;;;5.57;3.58;;;0.50;99.90;;;;;;5086449;28;20035;-30
2023/01/26 13:43:21;;;;;;;5.70;3.55;;;0.40;99.90;;;;;;5087497;28;20043;-34
2023/01/26 13:45:54;;;;;;;7.47;3.28;;;0.30;99.90;;;;;;5086038;28;20020;-31
2023/01/26 13:48:36;;;;;;;6.25;2.90;;;0.30;99.90;;;;;;5086056;28;20031;-30
2023/01/26 13:51:03;;;;;;;6.63;3.17;;;0.30;99.90;;;;;;5091842;28;20474;-31
2023/01/26 13:53:35;;;;;;;4.05;3.33;;;0.20;99.90;;;;;;5085373;28;20397;-29